Time;durP1;ratioP1;P1;durP2;ratioP2;P2;SDS_P1;SDS_P2;PMS_P1;PMS_P2;Temp;Humidity;BMP_temperature;BMP_pressure;BME280_temperature;BME280_humidity;BME280_pressure;Samples;Min_cycle;Max_cycle;Signal;HPM_P1;HPM_P2
2023/03/20 00:00:45;;;;;;;;;;;;;;;22.82;40.68;101611.31;7257536;19;153306;-54
2023/03/20 00:03:12;;;;;;;;;;;;;;;22.83;40.91;101610.16;7257283;19;154542;-54
2023/03/20 00:05:39;;;;;;;;;;;;;;;;;;7254583;19;155107;-54
2023/03/20 00:08:07;;;;;;;;;;;;;;;22.87;40.89;101586.69;7257965;19;159300;-54
2023/03/20 00:10:35;;;;;;;;;;;;;;;22.89;40.63;101578.78;7259409;19;153653;-54
2023/03/20 00:13:02;;;;;;;;;;;;;;;22.91;40.39;101589.72;7253514;19;153276;-54
2023/03/20 00:15:33;;;;;;;;;;;;;;;22.92;40.74;101582.97;7256171;19;154504;-54
2023/03/20 00:18:01;;;;;;;;;;;;;;;22.92;40.75;101578.16;7259141;19;152671;-54
2023/03/20 00:20:27;;;;;;;;;;;;;;;22.95;40.58;101585.16;7263823;19;153958;-54
2023/03/20 00:22:57;;;;;;;;;;;;;;;22.96;40.67;101592.47;7257958;19;155155;-54
2023/03/20 00:25:24;;;;;;;;;;;;;;;22.97;40.26;101594.16;7254636;19;154499;-54
2023/03/20 00:27:51;;;;;;;;;;;;;;;22.96;40.36;101595.28;7256775;19;152851;-54
2023/03/20 00:30:20;;;;;;;;;;;;;;;22.97;40.67;101596.97;7257065;19;153989;-54
2023/03/20 00:32:48;;;;;;;;;;;;;;;22.96;40.83;101593.31;7257323;19;154287;-54
2023/03/20 00:35:20;;;;;;;;;;;;;;;22.93;40.45;101593.94;7262075;19;153448;-54
2023/03/20 00:37:46;;;;;;;;;;;;;;;22.96;40.39;101595.28;7257677;19;154597;-54
2023/03/20 00:40:13;;;;;;;;;;;;;;;22.94;40.54;101597.59;7263971;19;154002;-54
2023/03/20 00:42:41;;;;;;;;;;;;;;;22.96;40.75;101603.75;7257720;19;153818;-54
2023/03/20 00:45:12;;;;;;;;;;;;;;;22.93;40.84;101596.75;7254225;19;153288;-53
2023/03/20 00:47:40;;;;;;;;;;;;;;;22.95;40.63;101596.41;7256361;19;153635;-54
2023/03/20 00:50:19;;;;;;;;;;;;;;;22.94;40.83;101591.97;7257097;19;153607;-54
2023/03/20 00:52:46;;;;;;;;;;;;;;;22.93;40.88;101601.53;7255990;19;153371;-54
2023/03/20 00:55:13;;;;;;;;;;;;;;;22.89;40.42;101592.03;7255177;19;152806;-54
2023/03/20 00:57:46;;;;;;;;;;;;;;;22.89;40.90;101595.69;7256549;19;154141;-54
2023/03/20 01:00:26;;;;;;;;;;;;;;;22.89;40.99;101589.22;7256228;19;152471;-54
2023/03/20 01:02:52;;;;;;;;;;;;;;;;;;7261736;19;153352;-54
2023/03/20 01:05:19;;;;;;;;;;;;;;;22.85;41.33;101588.97;7255704;19;182692;-54
2023/03/20 01:07:46;;;;;;;;;;;;;;;22.84;41.36;101606.22;7257404;19;153400;-54
2023/03/20 01:10:13;;;;;;;;;;;;;;;22.82;41.16;101597.22;7257256;19;153538;-54
2023/03/20 01:12:40;;;;;;;;;;;;;;;22.81;41.12;101589.91;7258104;19;155055;-54
2023/03/20 01:15:15;;;;;;;;;;;;;;;22.78;41.49;101599.81;7255217;19;152394;-54
2023/03/20 01:17:41;;;;;;;;;;;;;;;22.77;41.33;101594.50;7256304;19;153730;-54
2023/03/20 01:20:20;;;;;;;;;;;;;;;22.74;41.43;101584.69;7254436;19;154223;-54
2023/03/20 01:22:47;;;;;;;;;;;;;;;22.70;41.24;101588.44;7256545;19;154602;-54
2023/03/20 01:25:13;;;;;;;;;;;;;;;22.67;41.68;101589.03;7263187;19;153257;-55
2023/03/20 01:27:42;;;;;;;;;;;;;;;22.66;41.64;101585.38;7257547;19;153445;-54
2023/03/20 01:30:16;;;;;;;;;;;;;;;22.62;41.73;101584.31;7256487;19;153967;-54
2023/03/20 01:32:45;;;;;;;;;;;;;;;22.58;41.54;101583.22;7254233;19;154308;-53
2023/03/20 01:35:13;;;;;;;;;;;;;;;22.54;41.31;101585.81;7254752;19;153426;-54
2023/03/20 01:37:40;;;;;;;;;;;;;;;22.51;41.48;101580.81;7256122;19;154065;-54
2023/03/20 01:40:16;;;;;;;;;;;;;;;22.48;41.54;101581.44;7261488;19;154492;-54
2023/03/20 01:42:43;;;;;;;;;;;;;;;22.45;41.47;101581.19;7261500;19;153815;-54
2023/03/20 01:45:17;;;;;;;;;;;;;;;22.41;42.00;101583.78;7260973;19;152515;-54
2023/03/20 01:47:44;;;;;;;;;;;;;;;22.39;41.88;101574.81;7269998;19;153390;-54
2023/03/20 01:50:21;;;;;;;;;;;;;;;22.39;41.44;101571.16;7262654;19;154417;-54
2023/03/20 01:52:50;;;;;;;;;;;;;;;22.33;42.04;101572.38;7260602;19;156264;-54
2023/03/20 01:55:18;;;;;;;;;;;;;;;22.27;41.81;101573.59;7259844;19;153377;-54
2023/03/20 01:57:44;;;;;;;;;;;;;;;22.27;41.92;101567.97;7260885;19;153940;-54
2023/03/20 02:00:14;;;;;;;;;;;;;;;22.24;41.95;101571.41;7258828;19;154693;-54
2023/03/20 02:02:42;;;;;;;;;;;;;;;22.19;42.00;101558.25;7258003;19;154247;-54
2023/03/20 02:05:10;;;;;;;;;;;;;;;22.18;41.72;101556.56;7261643;19;153342;-53
2023/03/20 02:07:38;;;;;;;;;;;;;;;22.16;42.13;101565.31;7261289;19;153474;-53
2023/03/20 02:10:07;;;;;;;;;;;;;;;22.15;41.99;101560.00;7268405;19;152706;-53
2023/03/20 02:12:35;;;;;;;;;;;;;;;22.12;42.10;101557.78;7261581;19;153928;-54
2023/03/20 02:15:02;;;;;;;;;;;;;;;22.10;41.96;101552.47;7261945;19;151996;-54
2023/03/20 02:17:29;;;;;;;;;;;;;;;22.10;41.79;101549.66;7260375;19;153562;-54
2023/03/20 02:20:06;;;;;;;;;;;;;;;22.05;42.34;101546.91;7261540;19;153581;-54
2023/03/20 02:22:47;;;;;;;;;;;;;;;22.04;41.95;101545.22;7262989;19;152256;-54
2023/03/20 02:25:33;;;;;;;;;;;;;;;21.98;41.80;101543.66;7258732;19;153529;-54
2023/03/20 02:28:13;;;;;;;;;;;;;;;22.00;41.90;101534.88;7262405;19;153625;-54
2023/03/20 02:30:45;;;;;;;;;;;;;;;21.93;42.27;101526.00;7270488;19;152669;-54
2023/03/20 02:33:24;;;;;;;;;;;;;;;21.93;42.15;101526.00;7259950;19;154536;-54
2023/03/20 02:36:14;;;;;;;;;;;;;;;21.89;42.31;101514.50;7260714;19;153209;-54
2023/03/20 02:38:41;;;;;;;;;;;;;;;21.88;42.00;101504.38;7258994;19;153782;-54
2023/03/20 02:41:08;;;;;;;;;;;;;;;21.83;42.19;101507.25;7259017;19;153136;-54
2023/03/20 02:43:48;;;;;;;;;;;;;;;21.81;42.38;101509.53;7260708;19;154303;-55
2023/03/20 02:46:30;;;;;;;;;;;;;;;21.78;42.28;101500.84;7262829;19;153853;-54
2023/03/20 02:48:56;;;;;;;;;;;;;;;21.76;42.39;101503.97;7258740;19;154118;-55
2023/03/20 02:51:34;;;;;;;;;;;;;;;21.74;42.41;101497.81;7260031;19;152842;-54
2023/03/20 02:54:20;;;;;;;;;;;;;;;21.72;42.41;101489.69;7264660;19;153054;-55
2023/03/20 02:56:53;;;;;;;;;;;;;;;21.70;42.65;101483.53;7259587;19;153373;-55
2023/03/20 02:59:29;;;;;;;;;;;;;;;21.66;42.58;101485.28;7258906;19;153785;-55
2023/03/20 03:02:31;;;;;;;;;;;;;;;21.63;42.88;101491.50;7262579;19;152824;-55
2023/03/20 03:05:00;;;;;;;;;;;;;;;21.60;43.08;101489.28;7256141;19;154714;-55
2023/03/20 03:07:29;;;;;;;;;;;;;;;21.57;42.87;101495.53;7258144;19;152662;-55
2023/03/20 03:10:01;;;;;;;;;;;;;;;21.58;42.77;101485.94;7258107;19;154319;-55
2023/03/20 03:12:34;;;;;;;;;;;;;;;21.55;43.09;101480.94;7259769;19;153109;-55
2023/03/20 03:15:02;;;;;;;;;;;;;;;21.54;42.91;101482.06;7258153;19;153635;-55
2023/03/20 03:17:31;;;;;;;;;;;;;;;21.51;43.03;101473.41;7263301;19;155446;-55
2023/03/20 03:20:01;;;;;;;;;;;;;;;21.46;43.14;101482.75;7260068;19;153971;-55
2023/03/20 03:22:28;;;;;;;;;;;;;;;21.47;43.10;101487.22;7259925;19;153613;-55
2023/03/20 03:24:54;;;;;;;;;;;;;;;21.42;43.18;101473.25;7256734;19;153188;-55
2023/03/20 03:27:36;;;;;;;;;;;;;;;21.39;43.09;101476.66;7258660;19;153690;-55
2023/03/20 03:30:24;;;;;;;;;;;;;;;21.40;42.83;101471.84;7258294;19;155837;-55
2023/03/20 03:33:06;;;;;;;;;;;;;;;21.38;43.35;101472.19;7259907;19;152307;-54
2023/03/20 03:35:32;;;;;;;;;;;;;;;21.34;43.03;101473.91;7259157;19;152809;-54
2023/03/20 03:38:11;;;;;;;;;;;;;;;21.36;43.39;101467.97;7256696;19;155167;-54
2023/03/20 03:40:51;;;;;;;;;;;;;;;21.33;43.63;101472.25;7263535;19;152755;-55
2023/03/20 03:43:33;;;;;;;;;;;;;;;21.33;43.25;101466.63;7258136;19;153699;-54
2023/03/20 03:46:02;;;;;;;;;;;;;;;21.30;43.47;101467.22;7258102;19;152443;-54
2023/03/20 03:48:41;;;;;;;;;;;;;;;21.29;43.29;101466.38;7256420;19;154100;-54
2023/03/20 03:51:11;;;;;;;;;;;;;;;21.27;43.58;101470.63;7260121;19;153235;-54
2023/03/20 03:54:04;;;;;;;;;;;;;;;21.23;43.30;101461.13;7254711;19;152756;-54
2023/03/20 03:56:33;;;;;;;;;;;;;;;21.17;43.25;101460.34;7255130;19;153435;-54
2023/03/20 03:59:03;;;;;;;;;;;;;;;21.15;43.16;101458.97;7253932;19;153412;-54
2023/03/20 04:01:34;;;;;;;;;;;;;;;21.15;43.09;101458.97;7255876;19;152370;-54
2023/03/20 04:04:09;;;;;;;;;;;;;;;21.13;43.25;101461.25;7265699;19;154285;-54
2023/03/20 04:06:36;;;;;;;;;;;;;;;21.11;43.48;101455.06;7258095;19;153943;-54
2023/03/20 04:09:03;;;;;;;;;;;;;;;21.09;43.47;101460.16;7258232;19;153637;-53
2023/03/20 04:11:30;;;;;;;;;;;;;;;21.08;43.33;101461.28;7255062;19;153110;-54
2023/03/20 04:13:56;;;;;;;;;;;;;;;21.04;43.49;101466.66;7255266;19;152093;-54
2023/03/20 04:16:24;;;;;;;;;;;;;;;21.00;43.50;101457.16;7255825;19;153678;-54
2023/03/20 04:18:51;;;;;;;;;;;;;;;20.98;43.38;101450.19;7255551;19;154343;-54
2023/03/20 04:21:18;;;;;;;;;;;;;;;20.97;43.65;101451.31;7257451;19;152250;-54
2023/03/20 04:23:45;;;;;;;;;;;;;;;20.93;43.69;101445.47;7256835;19;153146;-54
2023/03/20 04:26:12;;;;;;;;;;;;;;;20.94;43.50;101443.50;7264085;19;153583;-54
2023/03/20 04:28:39;;;;;;;;;;;;;;;20.90;43.68;101446.03;7259256;19;153977;-54
2023/03/20 04:31:06;;;;;;;;;;;;;;;20.86;43.76;101443.00;7257146;19;154145;-54
2023/03/20 04:33:32;;;;;;;;;;;;;;;20.84;44.07;101445.28;7257250;19;152800;-54
2023/03/20 04:35:59;;;;;;;;;;;;;;;20.83;43.96;101454.00;7258657;19;154765;-54
2023/03/20 04:38:26;;;;;;;;;;;;;;;20.83;44.06;101459.63;7258778;19;153565;-54
2023/03/20 04:40:53;;;;;;;;;;;;;;;20.80;43.74;101461.03;7258103;19;152541;-54
2023/03/20 04:43:19;;;;;;;;;;;;;;;20.78;43.89;101451.25;7256394;19;153930;-54
2023/03/20 04:45:46;;;;;;;;;;;;;;;20.76;44.06;101457.16;7266184;19;154321;-54
2023/03/20 04:48:13;;;;;;;;;;;;;;;20.75;43.76;101451.84;7257130;19;153154;-54
2023/03/20 04:50:40;;;;;;;;;;;;;;;20.74;44.12;101467.00;7254122;19;154162;-54
2023/03/20 04:53:06;;;;;;;;;;;;;;;20.70;44.30;101454.72;7259025;19;152516;-55
2023/03/20 04:55:33;;;;;;;;;;;;;;;20.70;44.25;101451.91;7255979;19;153119;-54
2023/03/20 04:58:00;;;;;;;;;;;;;;;20.68;44.00;101448.53;7254472;19;153957;-54
2023/03/20 05:00:27;;;;;;;;;;;;;;;20.67;44.25;101442.09;7255071;19;153296;-54
2023/03/20 05:02:54;;;;;;;;;;;;;;;20.64;44.25;101442.69;7255106;19;154627;-54
2023/03/20 05:05:21;;;;;;;;;;;;;;;20.64;44.33;101441.84;7254901;19;154289;-54
2023/03/20 05:07:48;;;;;;;;;;;;;;;20.62;44.00;101436.56;7263763;19;153351;-54
2023/03/20 05:10:15;;;;;;;;;;;;;;;20.59;44.36;101431.50;7254072;19;153279;-54
2023/03/20 05:12:42;;;;;;;;;;;;;;;20.59;44.02;101430.66;7258106;19;152718;-54
2023/03/20 05:15:09;;;;;;;;;;;;;;;20.59;44.46;101433.47;7265591;19;152825;-54
2023/03/20 05:17:36;;;;;;;;;;;;;;;20.57;44.34;101436.59;7261019;19;154444;-54
2023/03/20 05:20:02;;;;;;;;;;;;;;;20.55;44.50;101429.59;7264168;19;152777;-54
2023/03/20 05:22:29;;;;;;;;;;;;;;;20.54;44.25;101439.13;7261997;19;154296;-54
2023/03/20 05:24:56;;;;;;;;;;;;;;;20.51;44.08;101428.50;7262933;19;153637;-54
2023/03/20 05:27:22;;;;;;;;;;;;;;;20.50;44.65;101430.47;7263000;19;153336;-54
2023/03/20 05:29:49;;;;;;;;;;;;;;;20.50;44.38;101435.25;7270684;19;152151;-54
2023/03/20 05:32:16;;;;;;;;;;;;;;;20.46;44.80;101435.03;7263908;19;153830;-54
2023/03/20 05:34:43;;;;;;;;;;;;;;;20.46;44.39;101435.03;7266144;19;153035;-54
2023/03/20 05:37:09;;;;;;;;;;;;;;;20.46;44.55;101435.03;7258756;19;154138;-54
2023/03/20 05:39:36;;;;;;;;;;;;;;;20.45;44.80;101426.88;7263265;19;152469;-54
2023/03/20 05:42:03;;;;;;;;;;;;;;;20.45;44.64;101424.06;7262050;19;153381;-53
2023/03/20 05:44:30;;;;;;;;;;;;;;;20.45;43.70;101422.09;7261355;19;157261;-54
2023/03/20 05:46:56;;;;;;;;;;;;;;;20.45;44.51;101432.50;7259875;19;152283;-54
2023/03/20 05:49:23;;;;;;;;;;;;;;;20.42;44.41;101423.56;7261776;19;153611;-54
2023/03/20 05:51:50;;;;;;;;;;;;;;;20.40;44.68;101423.00;7266104;19;153450;-54
2023/03/20 05:54:17;;;;;;;;;;;;;;;20.37;44.84;101415.19;7259588;19;153838;-54
2023/03/20 05:56:43;;;;;;;;;;;;;;;20.34;44.86;101415.78;7259595;19;153763;-54
2023/03/20 05:59:10;;;;;;;;;;;;;;;20.34;44.98;101420.56;7261947;19;152793;-54
2023/03/20 06:01:42;;;;;;;;;;;;;;;20.31;44.81;101419.16;7265582;19;153797;-54
2023/03/20 06:04:09;;;;;;;;;;;;;;;20.31;45.08;101424.78;7264118;19;154228;-54
2023/03/20 06:06:36;;;;;;;;;;;;;;;20.30;45.08;101428.75;7263234;19;153309;-54
2023/03/20 06:09:03;;;;;;;;;;;;;;;20.28;45.21;101419.72;7260736;19;154465;-54
2023/03/20 06:11:31;;;;;;;;;;;;;;;20.25;45.15;101430.72;7263012;19;155314;-54
2023/03/20 06:14:00;;;;;;;;;;;;;;;20.24;44.89;101427.06;7271714;19;152858;-54
2023/03/20 06:16:27;;;;;;;;;;;;;;;20.22;44.99;101420.06;7261448;19;155027;-54
2023/03/20 06:18:54;;;;;;;;;;;;;;;20.23;45.38;101425.38;7263353;19;153201;-54
2023/03/20 06:21:21;;;;;;;;;;;;;;;20.21;45.41;101427.66;7264770;19;153989;-54
2023/03/20 06:23:47;;;;;;;;;;;;;;;20.20;45.10;101416.72;7262691;19;153991;-54
2023/03/20 06:26:14;;;;;;;;;;;;;;;20.19;45.10;101420.66;7263317;19;153422;-54
2023/03/20 06:28:41;;;;;;;;;;;;;;;20.19;45.06;101432.72;7264563;19;153416;-54
2023/03/20 06:31:08;;;;;;;;;;;;;;;20.17;45.51;101428.56;7267555;19;153971;-54
2023/03/20 06:33:36;;;;;;;;;;;;;;;20.17;45.13;101442.56;7266080;19;154052;-54
2023/03/20 06:36:03;;;;;;;;;;;;;;;20.15;45.12;101436.41;7271040;19;154410;-54
2023/03/20 06:38:30;;;;;;;;;;;;;;;20.15;45.27;101445.66;7261003;19;152835;-54
2023/03/20 06:40:57;;;;;;;;;;;;;;;20.12;45.58;101449.06;7262085;19;153303;-54
2023/03/20 06:43:24;;;;;;;;;;;;;;;20.12;45.52;101442.63;7261244;19;153382;-54
2023/03/20 06:45:51;;;;;;;;;;;;;;;20.12;45.16;101439.81;7260774;19;153769;-54
2023/03/20 06:48:20;;;;;;;;;;;;;;;20.12;45.54;101439.81;7261076;19;154111;-54
2023/03/20 06:50:48;;;;;;;;;;;;;;;20.13;45.60;101435.84;7260493;19;153153;-54
2023/03/20 06:53:15;;;;;;;;;;;;;;;20.11;45.59;101438.13;7262703;19;153076;-54
2023/03/20 06:55:45;;;;;;;;;;;;;;;20.11;45.67;101450.19;7266453;19;152961;-54
2023/03/20 06:58:12;;;;;;;;;;;;;;;20.10;45.19;101448.50;7262014;19;152989;-54
2023/03/20 07:00:39;;;;;;;;;;;;;;;20.08;45.65;101453.56;7261762;19;154952;-54
2023/03/20 07:03:05;;;;;;;;;;;;;;;20.08;45.86;101449.94;7260539;19;153754;-54
2023/03/20 07:05:32;;;;;;;;;;;;;;;20.07;46.00;101443.50;7261964;19;153281;-54
2023/03/20 07:07:59;;;;;;;;;;;;;;;20.08;45.92;101449.94;7261473;19;153683;-54
2023/03/20 07:10:27;;;;;;;;;;;;;;;20.06;46.00;101446.59;7256354;19;153288;-55
2023/03/20 07:12:53;;;;;;;;;;;;;;;20.08;45.95;101450.75;7259939;19;153033;-53
2023/03/20 07:15:20;;;;;;;;;;;;;;;20.04;45.77;101446.03;7259487;19;153900;-54
2023/03/20 07:17:47;;;;;;;;;;;;;;;20.10;46.36;101458.91;7264475;19;153813;-55
2023/03/20 07:20:14;;;;;;;;;;;;;;;20.17;46.03;101451.00;7259890;19;153430;-55
2023/03/20 07:22:41;;;;;;;;;;;;;;;20.22;46.07;101445.31;7256822;19;154545;-55
2023/03/20 07:25:09;;;;;;;;;;;;;;;20.27;45.66;101442.47;7258179;19;153360;-55
2023/03/20 07:27:36;;;;;;;;;;;;;;;20.30;45.40;101451.19;7260669;19;155394;-55
2023/03/20 07:30:04;;;;;;;;;;;;;;;20.35;45.66;101439.88;7255940;19;154296;-55
2023/03/20 07:32:30;;;;;;;;;;;;;;;20.25;45.36;101430.72;7259188;19;153603;-55
2023/03/20 07:34:57;;;;;;;;;;;;;;;20.13;44.71;101439.50;7258859;19;154070;-55
2023/03/20 07:37:24;;;;;;;;;;;;;;;20.20;45.07;101428.78;7254140;19;154413;-55
2023/03/20 07:39:50;;;;;;;;;;;;;;;20.30;44.76;101430.69;7263747;19;153701;-55
2023/03/20 07:42:17;;;;;;;;;;;;;;;20.37;44.70;101431.19;7256323;19;154370;-55
2023/03/20 07:44:44;;;;;;;;;;;;;;;20.40;44.39;101430.56;7256842;19;152968;-55
2023/03/20 07:47:10;;;;;;;;;;;;;;;20.47;44.53;101435.84;7259524;19;153468;-54
2023/03/20 07:49:37;;;;;;;;;;;;;;;20.51;44.53;101425.72;7254400;19;153281;-55
2023/03/20 07:52:04;;;;;;;;;;;;;;;20.55;44.51;101430.44;7255438;19;153609;-55
2023/03/20 07:54:31;;;;;;;;;;;;;;;20.59;44.56;101428.69;7256250;19;153874;-55
2023/03/20 07:56:57;;;;;;;;;;;;;;;20.65;44.32;101429.50;7252334;19;155955;-55
2023/03/20 07:59:24;;;;;;;;;;;;;;;20.70;44.70;101435.06;7253971;19;154266;-55
2023/03/20 08:01:51;;;;;;;;;;;;;;;20.75;44.42;101443.44;7264720;19;153316;-55
2023/03/20 08:04:21;;;;;;;;;;;;;;;20.79;44.27;101441.69;7257236;19;152788;-55
2023/03/20 08:06:49;;;;;;;;;;;;;;;20.85;44.19;101441.31;7258508;19;152897;-55
2023/03/20 08:09:17;;;;;;;;;;;;;;;20.91;44.13;101430.03;7256612;19;154056;-55
2023/03/20 08:11:52;;;;;;;;;;;;;;;20.96;44.33;101439.22;7255051;19;153013;-55
2023/03/20 08:14:19;;;;;;;;;;;;;;;21.01;44.12;101436.38;7255300;19;155547;-55
2023/03/20 08:16:45;;;;;;;;;;;;;;;21.06;44.15;101439.13;7256485;19;155609;-55
2023/03/20 08:19:12;;;;;;;;;;;;;;;21.11;43.68;101441.03;7254690;19;152786;-55
2023/03/20 08:21:39;;;;;;;;;;;;;;;21.17;44.04;101437.03;7257592;19;154036;-55
2023/03/20 08:24:21;;;;;;;;;;;;;;;21.26;43.93;101432.41;7260971;19;153165;-56
2023/03/20 08:26:48;;;;;;;;;;;;;;;21.30;43.88;101431.50;7258848;19;153641;-55
2023/03/20 08:29:18;;;;;;;;;;;;;;;21.35;43.98;101426.97;7253596;19;154409;-57
2023/03/20 08:31:49;;;;;;;;;;;;;;;21.42;43.87;101433.03;7256751;19;153632;-55
2023/03/20 08:34:16;;;;;;;;;;;;;;;21.46;43.59;101431.28;7253430;19;153674;-56
2023/03/20 08:36:43;;;;;;;;;;;;;;;21.49;43.67;101425.06;7250537;19;153616;-54
2023/03/20 08:39:10;;;;;;;;;;;;;;;21.51;43.66;101426.44;7246789;19;153783;-55
2023/03/20 08:41:44;;;;;;;;;;;;;;;21.52;43.48;101435.72;7254318;19;153865;-55
2023/03/20 08:44:12;;;;;;;;;;;;;;;21.56;43.47;101439.59;7255718;19;154076;-55
2023/03/20 08:46:38;;;;;;;;;;;;;;;21.60;43.31;101435.03;7261718;19;152530;-54
2023/03/20 08:49:06;;;;;;;;;;;;;;;21.62;43.14;101424.31;7259589;19;153687;-54
2023/03/20 08:51:32;;;;;;;;;;;;;;;21.64;43.14;101422.88;7265673;19;152638;-54
2023/03/20 08:54:00;;;;;;;;;;;;;;;21.68;43.13;101425.91;7262010;19;153991;-54
2023/03/20 08:56:26;;;;;;;;;;;;;;;21.70;43.00;101432.91;7261242;19;153928;-54
2023/03/20 08:58:54;;;;;;;;;;;;;;;21.72;42.92;101436.22;7262962;19;152996;-54
2023/03/20 09:01:21;;;;;;;;;;;;;;;21.76;42.63;101433.66;7267188;19;154982;-55
2023/03/20 09:03:48;;;;;;;;;;;;;;;21.79;42.71;101432.22;7257341;19;155163;-54
2023/03/20 09:06:15;;;;;;;;;;;;;;;21.83;42.78;101436.94;7271645;19;151855;-54
2023/03/20 09:08:42;;;;;;;;;;;;;;;21.84;42.77;101423.69;7263811;19;154213;-54
2023/03/20 09:11:09;;;;;;;;;;;;;;;21.87;42.70;101428.69;7266908;19;152939;-54
2023/03/20 09:13:35;;;;;;;;;;;;;;;21.88;42.42;101430.38;7266262;19;153689;-54
2023/03/20 09:16:02;;;;;;;;;;;;;;;21.91;42.76;101435.38;7264250;19;153899;-54
2023/03/20 09:18:29;;;;;;;;;;;;;;;21.91;42.79;101438.19;7259510;19;153819;-54
2023/03/20 09:20:56;;;;;;;;;;;;;;;21.91;42.74;101455.91;7263171;19;152864;-54
2023/03/20 09:23:23;;;;;;;;;;;;;;;21.95;42.49;101448.56;7261377;19;153518;-54
2023/03/20 09:25:49;;;;;;;;;;;;;;;21.97;42.23;101445.47;7260135;19;152433;-54
2023/03/20 09:28:16;;;;;;;;;;;;;;;21.96;42.63;101443.78;7271723;19;154141;-55
2023/03/20 09:30:44;;;;;;;;;;;;;;;21.95;42.20;101439.28;7264237;19;153611;-54
2023/03/20 09:33:11;;;;;;;;;;;;;;;21.98;42.55;101447.13;7264229;19;153208;-54
2023/03/20 09:35:37;;;;;;;;;;;;;;;21.95;42.19;101439.28;7261493;19;154010;-54
2023/03/20 09:38:05;;;;;;;;;;;;;;;21.98;42.36;101438.69;7262440;19;153181;-54
2023/03/20 09:40:41;;;;;;;;;;;;;;;21.93;42.08;101441.59;7260594;19;153708;-54
2023/03/20 09:43:21;;;;;;;;;;;;;;;21.94;42.40;101437.63;7262809;19;153216;-54
2023/03/20 09:45:53;;;;;;;;;;;;;;;21.93;42.05;101442.44;7263910;19;153127;-54
2023/03/20 09:48:30;;;;;;;;;;;;;;;21.94;42.49;101440.44;7262643;19;153210;-54
2023/03/20 09:51:02;;;;;;;;;;;;;;;21.95;42.34;101444.91;7266887;19;154575;-54
2023/03/20 09:53:37;;;;;;;;;;;;;;;21.92;42.27;101443.53;7262282;19;153152;-55
2023/03/20 09:56:08;;;;;;;;;;;;;;;21.92;42.43;101439.88;7260812;19;153812;-54
2023/03/20 09:58:36;;;;;;;;;;;;;;;21.91;42.50;101447.47;7262044;19;152574;-54
2023/03/20 10:01:04;;;;;;;;;;;;;;;21.91;42.30;101438.19;7261199;19;154972;-53
2023/03/20 10:03:42;;;;;;;;;;;;;;;21.92;42.34;101439.88;7261328;19;153462;-54
2023/03/20 10:06:14;;;;;;;;;;;;;;;21.91;42.51;101433.41;7264022;19;153146;-54
2023/03/20 10:08:41;;;;;;;;;;;;;;;21.88;42.60;101438.81;7261873;19;153921;-54
2023/03/20 10:11:22;;;;;;;;;;;;;;;21.86;42.20;101441.09;7258809;19;153997;-54
2023/03/20 10:14:07;;;;;;;;;;;;;;;21.82;42.59;101440.88;7269195;19;153060;-54
2023/03/20 10:16:34;;;;;;;;;;;;;;;21.80;42.42;101437.53;7258902;19;154505;-54
2023/03/20 10:19:06;;;;;;;;;;;;;;;21.79;42.42;101440.66;7258919;19;152710;-54
2023/03/20 10:21:56;;;;;;;;;;;;;;;21.77;42.71;101443.75;7262009;19;153415;-54
2023/03/20 10:24:28;;;;;;;;;;;;;;;21.76;42.74;101447.72;7256931;19;156052;-54
2023/03/20 10:26:57;;;;;;;;;;;;;;;21.72;42.59;101449.47;7258465;19;153507;-54
2023/03/20 10:29:24;;;;;;;;;;;;;;;21.69;42.65;101439.66;7261452;19;153141;-54
2023/03/20 10:32:09;;;;;;;;;;;;;;;21.68;42.90;101452.06;7260779;19;153943;-54
2023/03/20 10:34:39;;;;;;;;;;;;;;;21.66;42.75;101437.47;7263635;19;153737;-54
2023/03/20 10:37:21;;;;;;;;;;;;;;;21.64;42.54;101436.94;7266238;19;153770;-55
2023/03/20 10:40:06;;;;;;;;;;;;;;;21.62;42.83;101430.75;7259380;19;152349;-54
2023/03/20 10:42:36;;;;;;;;;;;;;;;21.60;42.70;101432.22;7266192;19;154037;-54
2023/03/20 10:45:07;;;;;;;;;;;;;;;21.56;42.92;101426.38;7262205;19;154212;-54
2023/03/20 10:47:37;;;;;;;;;;;;;;;21.54;43.23;101427.78;7260902;19;153061;-54
2023/03/20 10:50:06;;;;;;;;;;;;;;;21.53;42.80;101426.97;7260173;19;153986;-54
2023/03/20 10:52:35;;;;;;;;;;;;;;;21.49;43.32;101427.88;7261210;19;153946;-54
2023/03/20 10:55:17;;;;;;;;;;;;;;;21.48;43.07;101431.84;7263274;19;153248;-54
2023/03/20 10:57:47;;;;;;;;;;;;;;;21.45;43.45;101435.25;7255962;19;153776;-54
2023/03/20 11:00:21;;;;;;;;;;;;;;;21.42;43.11;101428.25;7263591;19;153948;-54
2023/03/20 11:02:47;;;;;;;;;;;;;;;21.36;43.20;101437.91;7262758;19;153922;-54
2023/03/20 11:05:20;;;;;;;;;;;;;;;21.35;43.33;101435.41;7261708;19;153057;-54
2023/03/20 11:07:51;;;;;;;;;;;;;;;21.41;43.43;101431.38;7257249;19;152652;-54
2023/03/20 11:10:25;;;;;;;;;;;;;;;21.43;43.20;101438.38;7252390;19;154140;-54
2023/03/20 11:12:52;;;;;;;;;;;;;;;21.45;43.50;101432.44;7257612;19;153220;-54
2023/03/20 11:15:22;;;;;;;;;;;;;;;21.46;43.66;101426.50;7255988;19;152908;-54
2023/03/20 11:17:50;;;;;;;;;;;;;;;21.49;43.46;101437.16;7255800;19;152459;-54
2023/03/20 11:20:17;;;;;;;;;;;;;;;21.52;43.37;101430.09;7263296;19;154202;-54
2023/03/20 11:22:46;;;;;;;;;;;;;;;21.57;43.63;101430.03;7257801;19;154104;-54
2023/03/20 11:25:42;;;;;;;;;;;;;;;21.62;43.64;101433.56;7253972;19;155173;-54
2023/03/20 11:28:18;;;;;;;;;;;;;;;21.65;43.29;101429.34;7258576;19;153308;-54
2023/03/20 11:30:45;;;;;;;;;;;;;;;21.68;43.66;101429.56;7257491;19;155767;-54
2023/03/20 11:33:30;;;;;;;;;;;;;;;21.72;43.17;101426.97;7256502;19;153485;-54
2023/03/20 11:35:58;;;;;;;;;;;;;;;21.77;43.14;101426.88;7256919;19;152638;-54
2023/03/20 11:38:24;;;;;;;;;;;;;;;21.80;43.31;101420.66;7254714;19;153040;-54
2023/03/20 11:40:52;;;;;;;;;;;;;;;21.83;43.28;101419.22;7252422;19;154502;-54
2023/03/20 11:43:20;;;;;;;;;;;;;;;21.87;43.15;101428.69;7265304;19;153998;-54
2023/03/20 11:45:49;;;;;;;;;;;;;;;21.90;43.13;101425.25;7255266;19;154253;-54
2023/03/20 11:48:16;;;;;;;;;;;;;;;21.93;43.03;101427.53;7254239;19;153022;-54
2023/03/20 11:51:03;;;;;;;;;;;;;;;21.97;43.15;101426.59;7256527;19;153913;-53
2023/03/20 11:53:33;;;;;;;;;;;;;;;22.00;43.11;101419.50;7251511;19;154482;-54
2023/03/20 11:56:09;;;;;;;;;;;;;;;22.04;43.40;101429.00;7255166;19;152908;-54
2023/03/20 11:59:06;;;;;;;;;;;;;;;22.07;43.03;101422.78;7256277;19;153018;-54
2023/03/20 12:01:51;;;;;;;;;;;;;;;22.09;43.16;101420.47;7252667;19;156417;-54
2023/03/20 12:04:28;;;;;;;;;;;;;;;22.08;43.01;101416.81;7256572;19;153757;-54
2023/03/20 12:07:02;;;;;;;;;;;;;;;22.12;43.11;101415.06;7262410;19;152858;-54
2023/03/20 12:09:55;;;;;;;;;;;;;;;22.15;42.62;101419.25;7256165;19;153456;-53
2023/03/20 12:12:41;;;;;;;;;;;;;;;22.14;42.72;101418.41;7252017;19;153906;-53
2023/03/20 12:15:16;;;;;;;;;;;;;;;22.18;42.66;101413.00;7254317;19;153446;-54
2023/03/20 12:17:51;;;;;;;;;;;;;;;22.17;43.08;101411.31;7253796;19;152816;-56
2023/03/20 12:20:35;;;;;;;;;;;;;;;22.17;43.07;101412.16;7253890;19;154701;-54
2023/03/20 12:23:09;;;;;;;;;;;;;;;22.18;42.96;101407.38;7253370;19;153510;-54
2023/03/20 12:25:36;;;;;;;;;;;;;;;22.17;42.83;101403.72;7254523;19;154469;-54
2023/03/20 12:28:10;;;;;;;;;;;;;;;22.19;42.79;101406.25;7255331;19;152926;-54
2023/03/20 12:30:47;;;;;;;;;;;;;;;22.19;42.91;101406.25;7264570;19;153674;-54
2023/03/20 12:33:19;;;;;;;;;;;;;;;22.20;42.69;101402.28;7256670;19;153829;-54
2023/03/20 12:35:51;;;;;;;;;;;;;;;22.23;42.55;101404.47;7253369;19;153322;-54
2023/03/20 12:38:29;;;;;;;;;;;;;;;22.18;42.75;101410.19;7255553;19;152949;-54
2023/03/20 12:41:07;;;;;;;;;;;;;;;22.19;42.96;101411.88;7250836;19;154473;-54
2023/03/20 12:43:42;;;;;;;;;;;;;;;22.18;42.59;101410.19;7254434;19;152949;-54